Time;durP1;ratioP1;P1;durP2;ratioP2;P2;SDS_P1;SDS_P2;PMS_P1;PMS_P2;Temp;Humidity;BMP_temperature;BMP_pressure;BME280_temperature;BME280_humidity;BME280_pressure;Samples;Min_cycle;Max_cycle;Signal;HPM_P1;HPM_P2
2023/08/15 00:00:20;;;;;;;0.80;0.80;;;;;;;23.63;57.20;99937.19;4441401;32;34807;-84
2023/08/15 00:02:49;;;;;;;1.80;1.10;;;;;;;23.55;57.01;99944.75;4439961;32;33319;-85
2023/08/15 00:05:20;;;;;;;1.45;1.10;;;;;;;23.40;58.03;99940.44;4430370;32;32705;-85
2023/08/15 00:08:01;;;;;;;1.73;1.10;;;;;;;23.31;58.18;99936.56;4447859;32;33574;-84
2023/08/15 00:10:29;;;;;;;3.90;1.50;;;;;;;23.50;57.40;99941.56;4446030;32;33953;-85
2023/08/15 00:12:58;;;;;;;2.20;1.55;;;;;;;23.47;57.68;99943.56;4451245;32;33631;-85
2023/08/15 00:15:27;;;;;;;1.77;1.30;;;;;;;23.52;57.65;99941.47;4444842;32;33900;-84
2023/08/15 00:17:56;;;;;;;1.95;1.37;;;;;;;23.47;57.98;99943.56;4443155;32;33670;-85
2023/08/15 00:20:28;;;;;;;1.87;1.50;;;;;;;23.45;57.62;99940.16;4446124;32;34754;-85
2023/08/15 00:22:57;;;;;;;1.80;1.30;;;;;;;23.58;57.33;99936.66;4449074;32;34363;-85
2023/08/15 00:25:26;;;;;;;2.17;1.40;;;;;;;23.53;57.72;99935.22;4450697;32;32670;-84
2023/08/15 00:27:55;;;;;;;1.55;1.02;;;;;;;23.64;57.40;99928.28;4441837;32;34681;-84
2023/08/15 00:30:24;;;;;;;2.15;1.27;;;;;;;23.57;57.48;99931.44;4441900;32;33940;-84
2023/08/15 00:32:53;;;;;;;2.17;1.48;;;;;;;23.56;57.44;99929.75;4445133;32;33571;-84
2023/08/15 00:35:21;;;;;;;2.55;1.10;;;;;;;23.41;57.83;99932.41;4448855;32;34309;-85
2023/08/15 00:37:52;;;;;;;3.05;1.00;;;;;;;23.64;57.30;99922.16;4443345;32;33427;-85
2023/08/15 00:40:20;;;;;;;1.37;0.93;;;;;;;23.57;57.63;99920.84;4444849;32;36496;-85
2023/08/15 00:42:49;;;;;;;2.35;1.50;;;;;;;23.43;58.19;99927.84;4443969;32;34359;-85
2023/08/15 00:45:18;;;;;;;2.58;1.35;;;;;;;23.46;58.07;99928.59;4442422;32;33153;-84
2023/08/15 00:47:47;;;;;;;2.90;1.40;;;;;;;23.49;57.88;99933.72;4443376;32;33661;-85
2023/08/15 00:50:16;;;;;;;1.42;1.12;;;;;;;23.47;57.98;99930.31;4444128;32;34833;-83
2023/08/15 00:52:45;;;;;;;1.20;1.00;;;;;;;23.49;58.13;99925.78;4444811;32;34556;-83
2023/08/15 00:55:15;;;;;;;1.70;1.10;;;;;;;23.39;58.40;99923.72;4431700;32;32606;-82
2023/08/15 00:57:44;;;;;;;2.50;1.60;;;;;;;23.43;58.14;99924.34;4451191;32;33506;-83
2023/08/15 01:00:15;;;;;;;2.20;1.12;;;;;;;23.52;58.27;99926.44;4444738;32;34719;-83
2023/08/15 01:02:44;;;;;;;2.83;1.42;;;;;;;23.54;57.88;99926.34;4445119;32;32986;-82
2023/08/15 01:05:16;;;;;;;1.52;0.90;;;;;;;23.38;58.02;99926.44;4444177;32;33416;-82
2023/08/15 01:07:45;;;;;;;2.37;1.12;;;;;;;23.29;58.29;99922.56;4450816;32;33510;-82
2023/08/15 01:10:15;;;;;;;1.77;1.20;;;;;;;23.23;58.69;99922.97;4445158;32;33516;-82
2023/08/15 01:12:48;;;;;;;0.87;0.83;;;;;;;23.32;58.61;99918.91;4445398;32;36155;-82
2023/08/15 01:15:20;;;;;;;2.55;1.35;;;;;;;23.44;57.88;99920.78;4445652;32;33939;-82
2023/08/15 01:17:55;;;;;;;1.55;1.00;;;;;;;23.39;58.26;99923.72;4445673;32;33203;-82
2023/08/15 01:20:29;;;;;;;1.98;1.30;;;;;;;23.28;58.61;99925.31;4451239;32;33741;-82
2023/08/15 01:23:02;;;;;;;1.80;1.10;;;;;;;23.37;58.37;99920.31;4445458;32;34434;-83
2023/08/15 01:25:33;;;;;;;2.00;1.00;;;;;;;23.23;58.93;99924.75;4445433;32;32972;-83
2023/08/15 01:28:03;;;;;;;2.28;1.00;;;;;;;23.45;58.42;99925.09;4445698;32;34635;-82
2023/08/15 01:30:32;;;;;;;1.70;1.27;;;;;;;23.32;58.88;99926.84;4445448;32;35185;-82
2023/08/15 01:33:04;;;;;;;2.92;1.27;;;;;;;23.27;59.31;99931.53;4451098;32;33593;-83
2023/08/15 01:35:36;;;;;;;1.85;1.12;;;;;;;23.29;59.09;99930.50;4444921;32;33457;-83
2023/08/15 01:38:10;;;;;;;1.77;1.23;;;;;;;23.23;59.26;99930.91;4445844;32;34132;-83
2023/08/15 01:40:41;;;;;;;2.03;1.20;;;;;;;23.43;58.40;99929.66;4447579;32;33921;-83
2023/08/15 01:43:11;;;;;;;1.55;1.08;;;;;;;23.23;58.82;99924.75;4452807;32;33100;-83
2023/08/15 01:45:40;;;;;;;1.85;1.08;;;;;;;23.37;58.72;99925.59;4447344;32;32583;-83
2023/08/15 01:48:09;;;;;;;2.00;1.62;;;;;;;23.32;58.48;99925.03;4446425;32;33696;-83
2023/08/15 01:50:38;;;;;;;1.80;1.40;;;;;;;23.19;58.96;99924.09;4447568;32;34905;-83
2023/08/15 01:53:07;;;;;;;1.45;0.95;;;;;;;23.19;59.08;99918.78;4447192;32;33963;-82
2023/08/15 01:55:35;;;;;;;1.87;1.12;;;;;;;23.18;59.20;99922.41;4452561;32;33221;-83
2023/08/15 01:58:05;;;;;;;1.58;1.08;;;;;;;23.12;59.43;99923.63;4445990;32;33696;-82
2023/08/15 02:00:35;;;;;;;2.87;1.42;;;;;;;23.07;59.52;99923.03;4443896;32;33783;-81
2023/08/15 02:03:04;;;;;;;2.87;1.50;;;;;;;23.13;59.38;99924.47;4436309;32;33694;-82
2023/08/15 02:05:33;;;;;;;1.73;1.00;;;;;;;23.14;59.17;99928.81;4448492;32;33130;-82
2023/08/15 02:08:04;;;;;;;1.65;1.05;;;;;;;23.02;59.61;99919.81;4448868;32;33114;-82
2023/08/15 02:10:33;;;;;;;1.37;1.00;;;;;;;22.94;59.85;99920.25;4443588;32;34124;-82
2023/08/15 02:13:02;;;;;;;2.45;1.17;;;;;;;22.98;59.87;99913.88;4445146;32;33422;-82
2023/08/15 02:15:32;;;;;;;2.05;1.02;;;;;;;22.98;59.89;99915.69;4445761;32;33405;-82
2023/08/15 02:18:01;;;;;;;1.60;1.10;;;;;;;22.93;59.96;99910.66;4452828;32;33082;-82
2023/08/15 02:20:30;;;;;;;1.65;1.17;;;;;;;22.89;60.29;99918.84;4446948;32;34766;-82
2023/08/15 02:22:59;;;;;;;1.33;1.15;;;;;;;22.90;60.28;99913.44;4447093;32;34340;-82
2023/08/15 02:25:27;;;;;;;1.23;0.95;;;;;;;22.96;59.89;99914.91;4446823;32;34934;-82
2023/08/15 02:27:56;;;;;;;2.30;1.80;;;;;;;22.86;60.05;99916.38;4452462;32;34390;-82
2023/08/15 02:30:25;;;;;;;2.62;1.40;;;;;;;22.98;59.71;99916.53;4447130;32;33479;-83
2023/08/15 02:32:55;;;;;;;1.17;0.95;;;;;;;22.92;59.97;99906.28;4445427;32;33429;-82
2023/08/15 02:35:24;;;;;;;2.08;1.25;;;;;;;22.90;60.03;99909.97;4447841;32;33115;-83
2023/08/15 02:37:53;;;;;;;1.98;1.25;;;;;;;22.78;60.19;99915.06;4452469;32;33583;-83
2023/08/15 02:40:24;;;;;;;3.15;1.55;;;;;;;22.82;60.46;99913.06;4446962;32;34008;-82
2023/08/15 02:42:53;;;;;;;3.20;1.73;;;;;;;22.68;60.77;99913.91;4446844;32;33821;-82
2023/08/15 02:45:23;;;;;;;2.58;1.50;;;;;;;22.59;61.01;99911.78;4447615;32;33838;-83
2023/08/15 02:47:52;;;;;;;2.05;1.45;;;;;;;22.75;60.72;99914.38;4446721;32;33890;-83
2023/08/15 02:50:22;;;;;;;1.98;1.05;;;;;;;22.59;61.13;99911.78;4455224;32;33843;-82
2023/08/15 02:52:51;;;;;;;1.83;1.30;;;;;;;22.53;61.32;99909.53;4446820;32;34423;-82
2023/08/15 02:55:20;;;;;;;2.05;1.10;;;;;;;22.44;61.69;99908.28;4432236;32;32395;-82
2023/08/15 02:57:49;;;;;;;1.85;1.05;;;;;;;22.61;61.38;99911.72;4445579;32;33759;-82
2023/08/15 03:00:18;;;;;;;2.65;1.50;;;;;;;22.69;61.13;99909.44;4449253;32;34366;-83
2023/08/15 03:02:48;;;;;;;2.53;1.27;;;;;;;22.71;60.90;99913.75;4441771;32;33839;-82
2023/08/15 03:05:16;;;;;;;1.35;1.02;;;;;;;22.60;61.19;99913.53;4442492;32;33325;-82
2023/08/15 03:07:47;;;;;;;1.42;1.05;;;;;;;22.70;61.16;99908.53;4444249;32;33858;-83
2023/08/15 03:10:16;;;;;;;2.90;1.33;;;;;;;22.55;61.46;99912.94;4444972;32;34481;-83
2023/08/15 03:12:45;;;;;;;2.40;1.20;;;;;;;22.57;61.21;99911.91;4443536;32;33586;-82
2023/08/15 03:15:13;;;;;;;2.15;1.20;;;;;;;22.61;61.29;99911.72;4444527;32;33314;-82
2023/08/15 03:17:42;;;;;;;2.80;1.12;;;;;;;22.53;61.24;99905.09;4442935;32;33166;-82
2023/08/15 03:20:12;;;;;;;2.10;1.25;;;;;;;22.60;61.08;99905.59;4445890;32;33470;-83
2023/08/15 03:22:43;;;;;;;2.15;1.35;;;;;;;22.54;61.09;99898.88;4452484;32;33880;-83
2023/08/15 03:25:14;;;;;;;1.90;1.00;;;;;;;22.41;61.62;99900.53;4435049;32;33052;-83
2023/08/15 03:27:44;;;;;;;2.00;0.95;;;;;;;22.53;61.50;99905.09;4431171;32;33718;-82
2023/08/15 03:30:13;;;;;;;2.10;1.35;;;;;;;22.45;61.70;99906.50;4446533;32;33666;-82
2023/08/15 03:32:42;;;;;;;2.05;1.48;;;;;;;22.53;61.44;99905.09;4447694;32;34668;-83
2023/08/15 03:35:11;;;;;;;1.95;1.40;;;;;;;22.58;61.09;99908.31;4452221;32;33492;-82
2023/08/15 03:37:40;;;;;;;1.73;1.10;;;;;;;22.41;61.49;99912.91;4446628;32;34508;-83
2023/08/15 03:40:10;;;;;;;2.10;1.10;;;;;;;22.47;61.37;99913.41;4446488;32;34732;-83
2023/08/15 03:42:40;;;;;;;1.05;0.90;;;;;;;22.45;61.46;99907.34;4446143;32;33489;-83
2023/08/15 03:45:10;;;;;;;2.03;1.15;;;;;;;22.47;61.31;99908.13;4452151;32;32455;-82
2023/08/15 03:47:39;;;;;;;2.03;1.25;;;;;;;22.42;61.55;99910.16;4446284;32;33391;-82
2023/08/15 03:50:08;;;;;;;1.52;1.00;;;;;;;22.56;60.93;99902.25;4446657;32;33702;-82
2023/08/15 03:52:37;;;;;;;2.50;1.33;;;;;;;22.45;61.25;99906.50;4446411;32;33566;-82
2023/08/15 03:55:07;;;;;;;1.80;1.12;;;;;;;22.40;61.43;99909.41;4451938;32;33784;-82
2023/08/15 03:57:36;;;;;;;2.08;1.23;;;;;;;22.43;61.61;99916.31;4448345;32;34337;-83
2023/08/15 04:00:09;;;;;;;2.25;1.58;;;;;;;22.32;62.05;99914.28;4443691;32;33776;-83
2023/08/15 04:02:41;;;;;;;1.70;1.23;;;;;;;22.41;61.87;99919.03;4443137;32;33471;-82
2023/08/15 04:05:11;;;;;;;2.80;1.70;;;;;;;22.25;62.47;99923.50;4444953;32;33919;-82
2023/08/15 04:07:40;;;;;;;1.52;1.10;;;;;;;22.44;61.99;99925.94;4448766;32;33816;-83
2023/08/15 04:10:11;;;;;;;2.47;1.37;;;;;;;22.33;62.60;99926.56;4443362;32;34417;-82
2023/08/15 04:12:40;;;;;;;1.45;1.05;;;;;;;22.36;62.71;99926.38;4441561;32;33921;-83
2023/08/15 04:15:11;;;;;;;1.77;1.20;;;;;;;22.39;62.88;99925.34;4443470;32;33146;-82
2023/08/15 04:17:40;;;;;;;1.70;1.25;;;;;;;22.50;62.58;99925.59;4448169;32;33992;-85
2023/08/15 04:20:12;;;;;;;2.00;1.27;;;;;;;22.47;62.65;99921.34;4442914;32;34262;-85
2023/08/15 04:22:46;;;;;;;2.85;1.98;;;;;;;22.61;62.36;99933.72;4443032;32;33537;-85
2023/08/15 04:25:15;;;;;;;2.10;1.27;;;;;;;22.62;62.40;99934.59;4445250;32;33518;-85
2023/08/15 04:27:44;;;;;;;1.58;1.00;;;;;;;22.60;62.47;99934.66;4449652;32;33542;-85
2023/08/15 04:30:14;;;;;;;1.70;1.25;;;;;;;22.70;62.70;99933.19;4452000;32;34457;-85
2023/08/15 04:32:43;;;;;;;1.53;1.43;;;;;;;22.65;62.89;99937.88;4446015;32;34223;-85
2023/08/15 04:35:12;;;;;;;1.52;1.20;;;;;;;22.77;62.88;99931.87;4445794;32;33152;-84
2023/08/15 04:37:41;;;;;;;4.10;1.10;;;;;;;22.70;63.31;99934.97;4441996;32;32501;-83
2023/08/15 04:40:13;;;;;;;3.20;1.80;;;;;;;22.77;63.68;99936.31;4450533;32;33472;-83
2023/08/15 04:42:42;;;;;;;1.98;1.30;;;;;;;22.95;63.07;99935.22;4451414;32;34479;-83
2023/08/15 04:45:11;;;;;;;1.65;1.17;;;;;;;23.03;62.88;99942.72;4446373;32;34190;-83
2023/08/15 04:47:41;;;;;;;1.45;1.12;;;;;;;23.03;63.11;99939.19;4446590;32;34213;-82
2023/08/15 04:50:10;;;;;;;2.72;1.60;;;;;;;23.04;63.17;99940.91;4446169;32;33411;-82
2023/08/15 04:52:39;;;;;;;2.15;1.27;;;;;;;23.18;63.02;99949.72;4451400;32;34577;-83
2023/08/15 04:55:10;;;;;;;2.65;1.37;;;;;;;23.07;63.61;99946.00;4445634;32;32813;-83
2023/08/15 04:57:40;;;;;;;1.87;1.50;;;;;;;22.94;63.72;99948.53;4444876;32;34461;-83
2023/08/15 05:00:11;;;;;;;2.80;1.60;;;;;;;23.31;62.81;99939.19;4442844;32;33766;-83
2023/08/15 05:02:42;;;;;;;2.75;1.23;;;;;;;23.39;62.78;99939.59;4444193;32;33895;-82
2023/08/15 05:05:11;;;;;;;;;;;;;;;23.46;62.66;99950.63;4447587;32;34536;-83
2023/08/15 05:07:41;;;;;;;2.30;1.40;;;;;;;23.54;62.71;99956.31;4443553;32;34669;-82
2023/08/15 05:10:10;;;;;;;1.42;1.20;;;;;;;23.42;62.39;99951.78;4440823;32;33811;-83
2023/08/15 05:12:40;;;;;;;2.30;1.33;;;;;;;23.71;61.31;99960.53;4441562;32;33929;-83
2023/08/15 05:15:09;;;;;;;1.80;1.23;;;;;;;24.19;59.78;99947.75;4448482;32;32891;-83
2023/08/15 05:17:38;;;;;;;2.53;1.33;;;;;;;24.75;57.63;99946.75;4447330;32;33830;-83
2023/08/15 05:20:10;;;;;;;1.60;1.17;;;;;;;25.48;55.72;99944.31;4443676;32;34302;-83
2023/08/15 05:22:39;;;;;;;1.70;1.10;;;;;;;26.40;53.18;99948.25;4442264;32;34509;-83
2023/08/15 05:25:08;;;;;;;2.10;1.35;;;;;;;27.04;50.22;99952.31;4449700;32;33428;-83
2023/08/15 05:27:38;;;;;;;2.20;1.12;;;;;;;27.82;48.01;99953.28;4447276;32;34354;-83
2023/08/15 05:30:08;;;;;;;2.92;1.48;;;;;;;28.38;46.17;99950.44;4442816;32;33394;-82
2023/08/15 05:32:37;;;;;;;2.28;1.35;;;;;;;28.61;46.15;99956.56;4443884;32;34483;-83
2023/08/15 05:35:08;;;;;;;2.47;1.37;;;;;;;28.48;45.56;99950.56;4444805;32;33178;-83
2023/08/15 05:37:37;;;;;;;;;;;;;;;28.91;44.45;99952.25;4448816;32;33563;-83
2023/08/15 05:40:07;;;;;;;3.03;1.35;;;;;;;28.90;44.71;99956.75;4443966;32;34231;-83
2023/08/15 05:42:36;;;;;;;2.17;1.25;;;;;;;28.75;44.59;99959.88;4441414;32;33536;-83
2023/08/15 05:45:06;;;;;;;2.00;1.45;;;;;;;29.11;44.35;99953.25;4442451;32;33196;-83
2023/08/15 05:47:34;;;;;;;1.30;1.05;;;;;;;28.98;44.65;99949.91;4449200;32;33478;-83
2023/08/15 05:50:04;;;;;;;2.33;1.40;;;;;;;29.09;44.87;99948.06;4443787;32;33710;-83
2023/08/15 05:52:34;;;;;;;3.92;1.75;;;;;;;29.11;44.94;99963.94;4444766;32;33625;-83
2023/08/15 05:55:06;;;;;;;1.33;0.93;;;;;;;28.96;45.27;99954.53;4444435;32;33298;-83
2023/08/15 05:57:35;;;;;;;3.05;1.33;;;;;;;29.04;45.27;99954.72;4444045;32;33514;-83
2023/08/15 06:00:06;;;;;;;2.15;1.27;;;;;;;28.88;45.66;99953.38;4449931;32;33837;-83
2023/08/15 06:02:40;;;;;;;1.87;1.40;;;;;;;28.77;46.29;99957.94;4438878;32;33651;-82
2023/08/15 06:05:09;;;;;;;2.42;1.73;;;;;;;27.99;48.05;99958.13;4436393;32;32971;-82
2023/08/15 06:07:40;;;;;;;1.85;1.12;;;;;;;28.04;48.09;99958.56;4444120;32;33638;-82
2023/08/15 06:10:10;;;;;;;1.85;0.95;;;;;;;27.61;48.96;99956.69;4447507;32;33688;-82
2023/08/15 06:12:39;;;;;;;1.90;1.17;;;;;;;27.63;48.85;99959.25;4445319;32;33726;-83
2023/08/15 06:15:08;;;;;;;1.75;1.20;;;;;;;27.31;49.73;99951.16;4442180;32;33603;-83
2023/08/15 06:17:37;;;;;;;2.62;1.30;;;;;;;27.31;49.79;99952.00;4441775;32;33639;-83
2023/08/15 06:20:07;;;;;;;1.98;1.35;;;;;;;27.04;50.42;99949.66;4442950;32;35053;-82
2023/08/15 06:22:36;;;;;;;2.17;1.37;;;;;;;27.18;49.96;99948.56;4444989;32;33771;-83
2023/08/15 06:25:07;;;;;;;3.10;1.58;;;;;;;27.16;50.15;99954.03;4444089;32;33365;-83
2023/08/15 06:27:35;;;;;;;2.20;1.42;;;;;;;27.26;49.81;99950.69;4446635;32;34121;-82
2023/08/15 06:30:05;;;;;;;4.10;1.77;;;;;;;27.31;49.30;99951.16;4441874;32;33709;-83
2023/08/15 06:32:35;;;;;;;2.23;1.50;;;;;;;27.37;49.95;99948.00;4437019;32;33842;-82
2023/08/15 06:35:05;;;;;;;2.87;1.55;;;;;;;27.51;49.39;99954.91;4431578;32;33844;-83
2023/08/15 06:37:34;;;;;;;2.62;1.50;;;;;;;27.40;49.71;99958.41;4438862;32;33849;-82
2023/08/15 06:40:04;;;;;;;2.12;1.23;;;;;;;27.29;48.79;99953.94;4437770;32;33841;-82
2023/08/15 06:42:36;;;;;;;4.20;1.08;;;;;;;27.13;49.34;99953.41;4438890;32;34448;-82
2023/08/15 06:45:07;;;;;;;2.80;1.20;;;;;;;27.47;48.72;99954.28;4451192;32;32477;-83
2023/08/15 06:47:38;;;;;;;2.08;1.12;;;;;;;27.30;49.32;99957.44;4431593;32;33114;-82
2023/08/15 06:50:08;;;;;;;2.00;1.42;;;;;;;27.22;48.78;99958.88;4436286;32;34655;-83
2023/08/15 06:52:37;;;;;;;2.00;1.30;;;;;;;27.31;48.41;99960.00;4448457;32;33293;-83
2023/08/15 06:55:06;;;;;;;1.00;0.85;;;;;;;27.50;47.03;99962.06;4450779;32;33081;-82
2023/08/15 06:57:37;;;;;;;2.70;1.35;;;;;;;27.47;47.13;99964.94;4443866;32;33635;-83
2023/08/15 07:00:10;;;;;;;1.95;1.33;;;;;;;27.46;46.64;99960.59;4441209;32;35469;-82
2023/08/15 07:02:39;;;;;;;2.08;1.30;;;;;;;27.41;47.42;99952.12;4439828;32;34094;-81
2023/08/15 07:05:10;;;;;;;3.28;1.50;;;;;;;27.53;47.20;99958.28;4442982;32;32958;-82
2023/08/15 07:07:39;;;;;;;;;;;;;;;27.53;46.74;99953.81;4451853;32;33564;-82
2023/08/15 07:10:10;;;;;;;1.37;1.00;;;;;;;27.84;46.41;99952.22;4441905;32;35147;-82
2023/08/15 07:12:40;;;;;;;1.92;1.10;;;;;;;27.24;47.20;99959.62;4441917;32;33111;-82
2023/08/15 07:15:10;;;;;;;2.15;1.15;;;;;;;27.52;46.27;99957.44;4444033;32;33038;-82
2023/08/15 07:17:40;;;;;;;1.80;1.17;;;;;;;27.80;45.39;99956.06;4451246;32;33592;-82
2023/08/15 07:20:13;;;;;;;2.05;1.33;;;;;;;27.65;45.98;99947.50;4448794;32;33938;-82
2023/08/15 07:22:43;;;;;;;2.00;1.33;;;;;;;27.81;45.85;99955.09;4446531;32;33554;-82
2023/08/15 07:25:12;;;;;;;2.95;1.48;;;;;;;27.82;46.29;99945.28;4439769;32;33128;-83
2023/08/15 07:27:42;;;;;;;2.25;1.30;;;;;;;27.76;46.78;99953.75;4434947;32;33885;-82
2023/08/15 07:30:12;;;;;;;4.10;1.73;;;;;;;27.53;46.48;99944.97;4448376;32;34344;-82
2023/08/15 07:32:41;;;;;;;2.50;1.75;;;;;;;27.96;46.29;99954.87;4443343;32;33914;-82
2023/08/15 07:35:10;;;;;;;3.42;1.40;;;;;;;28.07;45.76;99960.16;4440453;32;34136;-83
2023/08/15 07:37:41;;;;;;;2.10;1.52;;;;;;;27.67;46.43;99950.03;4442490;32;32089;-82
2023/08/15 07:40:18;;;;;;;2.08;1.42;;;;;;;27.88;45.92;99958.13;4449563;32;33608;-82
2023/08/15 07:42:49;;;;;;;3.95;2.53;;;;;;;27.90;46.53;99956.19;4445994;32;32609;-82
2023/08/15 07:45:18;;;;;;;;;;;;;;;27.79;47.01;99953.53;4444134;32;33094;-82
2023/08/15 07:47:51;;;;;;;4.93;2.00;;;;;;;28.25;46.35;99949.78;4446359;32;34099;-83
2023/08/15 07:50:23;;;;;;;2.62;1.50;;;;;;;28.13;45.72;99949.00;4443517;32;34820;-82
2023/08/15 07:52:52;;;;;;;2.87;1.73;;;;;;;28.61;45.19;99953.03;4449107;32;32402;-83
2023/08/15 07:55:21;;;;;;;2.95;1.62;;;;;;;28.27;45.98;99954.03;4443851;32;33093;-82
2023/08/15 07:57:51;;;;;;;2.45;1.40;;;;;;;28.35;46.20;99950.72;4444333;32;33387;-82
2023/08/15 08:00:20;;;;;;;2.92;2.10;;;;;;;28.59;45.73;99949.69;4445231;32;33362;-82
2023/08/15 08:02:49;;;;;;;1.50;1.12;;;;;;;28.62;46.08;99957.41;4440731;32;34561;-83
2023/08/15 08:05:18;;;;;;;2.55;1.35;;;;;;;28.41;46.28;99952.00;4449121;32;33071;-82
2023/08/15 08:07:50;;;;;;;3.08;1.20;;;;;;;28.66;45.71;99949.03;4444535;32;34386;-83
2023/08/15 08:10:19;;;;;;;4.32;2.03;;;;;;;28.96;44.74;99949.19;4444356;32;33960;-83
2023/08/15 08:12:47;;;;;;;4.07;2.05;;;;;;;28.94;44.90;99952.00;4444016;32;34431;-82
2023/08/15 08:15:18;;;;;;;3.03;1.48;;;;;;;28.83;44.86;99944.06;4448464;32;34692;-82
2023/08/15 08:17:47;;;;;;;2.40;1.33;;;;;;;28.97;44.40;99950.88;4442103;32;32996;-83
2023/08/15 08:20:17;;;;;;;2.62;1.20;;;;;;;28.90;45.34;99946.09;4443628;32;34397;-82
2023/08/15 08:22:46;;;;;;;3.45;1.85;;;;;;;29.11;45.09;99942.56;4442937;32;35732;-83
2023/08/15 08:25:21;;;;;;;2.78;1.45;;;;;;;29.35;44.20;99940.41;4448996;32;33729;-82
2023/08/15 08:27:50;;;;;;;2.15;1.10;;;;;;;29.43;43.92;99942.44;4451925;32;33942;-82
2023/08/15 08:30:22;;;;;;;3.50;1.33;;;;;;;29.55;43.77;99940.47;4430603;32;34317;-82
2023/08/15 08:32:54;;;;;;;1.30;1.02;;;;;;;29.34;43.16;99944.06;4442702;32;33423;-82
2023/08/15 08:35:23;;;;;;;2.45;1.60;;;;;;;29.53;42.58;99947.81;4436492;32;33016;-83
2023/08/15 08:37:51;;;;;;;2.53;1.23;;;;;;;29.53;43.05;99942.47;4436048;32;34364;-83
2023/08/15 08:40:21;;;;;;;2.20;1.20;;;;;;;29.72;43.31;99936.31;4444835;32;34914;-83
2023/08/15 08:42:50;;;;;;;1.05;0.70;;;;;;;29.48;43.48;99940.19;4444544;32;34265;-82
2023/08/15 08:45:24;;;;;;;3.83;1.52;;;;;;;29.73;42.49;99940.72;4443632;32;33447;-83
2023/08/15 08:47:54;;;;;;;2.50;1.20;;;;;;;29.84;41.82;99945.09;4429796;32;34175;-83
2023/08/15 08:50:23;;;;;;;3.73;1.73;;;;;;;29.44;42.25;99935.25;4436209;32;33940;-82
2023/08/15 08:52:52;;;;;;;2.30;1.50;;;;;;;29.99;41.06;99947.22;4440818;32;33651;-83
2023/08/15 08:55:22;;;;;;;3.33;1.00;;;;;;;30.12;40.75;99941.59;4446376;32;34153;-83
2023/08/15 08:57:53;;;;;;;3.03;1.50;;;;;;;30.24;40.62;99945.00;4445475;32;34645;-82
2023/08/15 09:00:27;;;;;;;4.10;2.47;;;;;;;30.23;39.97;99940.63;4447949;32;33539;-82
2023/08/15 09:02:56;;;;;;;2.58;1.37;;;;;;;30.24;40.02;99936.97;4441808;32;33623;-82
2023/08/15 09:05:26;;;;;;;1.58;1.00;;;;;;;30.04;40.01;99935.28;4438399;32;33877;-82
2023/08/15 09:07:55;;;;;;;1.45;0.98;;;;;;;30.57;39.05;99933.03;4443132;32;33892;-82
2023/08/15 09:10:24;;;;;;;1.65;1.10;;;;;;;30.25;38.75;99925.28;4444164;32;34334;-83
2023/08/15 09:12:58;;;;;;;2.12;1.20;;;;;;;30.43;40.20;99929.97;4449911;32;33516;-83
2023/08/15 09:15:28;;;;;;;3.17;1.40;;;;;;;30.71;40.19;99928.22;4443399;32;33157;-83
2023/08/15 09:18:04;;;;;;;1.80;1.00;;;;;;;30.77;39.30;99935.69;4443193;32;33603;-82
2023/08/15 09:20:34;;;;;;;2.58;1.27;;;;;;;30.76;39.13;99932.16;4441948;32;34088;-82
2023/08/15 09:23:05;;;;;;;1.83;1.20;;;;;;;30.50;37.87;99925.72;4447542;32;33811;-82
2023/08/15 09:25:36;;;;;;;2.47;1.23;;;;;;;30.62;37.92;99922.72;4448104;32;32429;-82
2023/08/15 09:28:06;;;;;;;2.17;1.20;;;;;;;30.96;37.61;99926.78;4436299;32;33258;-82
2023/08/15 09:30:37;;;;;;;2.45;1.10;;;;;;;31.11;38.45;99924.47;4443712;32;33238;-82
2023/08/15 09:33:06;;;;;;;4.78;2.17;;;;;;;31.22;38.25;99929.66;4439554;32;34785;-83
2023/08/15 09:35:35;;;;;;;3.22;1.80;;;;;;;31.30;37.85;99929.75;4446528;32;33521;-83
2023/08/15 09:38:17;;;;;;;3.62;2.00;;;;;;;31.23;37.79;99931.34;4440380;32;34275;-83
2023/08/15 09:40:48;;;;;;;1.10;0.73;;;;;;;31.54;37.25;99926.56;4436965;32;33711;-83
2023/08/15 09:43:17;;;;;;;1.58;1.02;;;;;;;31.61;37.16;99937.53;4440339;32;33070;-82
2023/08/15 09:45:47;;;;;;;2.45;1.05;;;;;;;31.67;36.86;99929.72;4441869;32;32972;-82
2023/08/15 09:48:17;;;;;;;2.37;1.40;;;;;;;31.93;36.77;99930.84;4439015;32;33685;-82
2023/08/15 09:50:48;;;;;;;2.63;1.37;;;;;;;31.79;36.83;99935.72;4442195;32;34695;-83
2023/08/15 09:53:17;;;;;;;2.40;1.35;;;;;;;31.92;36.00;99935.38;4444706;32;33484;-83
2023/08/15 09:55:46;;;;;;;2.58;1.15;;;;;;;32.02;35.42;99938.00;4440786;32;33131;-83
2023/08/15 09:58:16;;;;;;;2.10;1.67;;;;;;;31.57;35.20;99928.09;4446050;32;34005;-82
2023/08/15 10:00:49;;;;;;;1.42;0.95;;;;;;;31.89;34.89;99923.09;4445408;32;34441;-82
2023/08/15 10:03:20;;;;;;;2.05;1.17;;;;;;;31.87;35.13;99927.78;4446652;32;33458;-82
2023/08/15 10:05:55;;;;;;;3.78;1.80;;;;;;;31.82;35.31;99916.66;4446524;32;33773;-82
2023/08/15 10:08:25;;;;;;;2.25;1.33;;;;;;;31.82;35.99;99927.38;4446217;32;34608;-83
2023/08/15 10:10:54;;;;;;;2.15;1.30;;;;;;;31.96;35.76;99925.19;4452658;32;34737;-82
2023/08/15 10:13:27;;;;;;;1.45;0.90;;;;;;;32.06;34.22;99920.59;4447226;32;34237;-82
2023/08/15 10:16:00;;;;;;;4.25;1.05;;;;;;;32.14;34.87;99923.38;4447187;32;33324;-82
2023/08/15 10:18:30;;;;;;;2.28;1.45;;;;;;;32.28;35.10;99933.56;4444562;32;34566;-82
2023/08/15 10:20:59;;;;;;;2.70;1.62;;;;;;;32.25;33.93;99930.31;4450442;32;34260;-83
2023/08/15 10:23:29;;;;;;;2.65;1.05;;;;;;;32.36;33.96;99926.56;4451670;32;34382;-82
2023/08/15 10:25:58;;;;;;;3.85;1.65;;;;;;;32.62;34.78;99938.22;4444854;32;34335;-82
2023/08/15 10:28:28;;;;;;;2.37;1.40;;;;;;;32.79;33.86;99925.75;4423151;32;31855;-82
2023/08/15 10:30:58;;;;;;;2.92;1.20;;;;;;;32.84;34.02;99923.44;4437413;32;33236;-82
2023/08/15 10:33:31;;;;;;;;;;;;;;;32.25;35.18;99933.00;4439563;32;32968;-82
2023/08/15 10:36:08;;;;;;;2.37;1.27;;;;;;;32.72;33.52;99917.47;4437673;32;33152;-82
2023/08/15 10:38:40;;;;;;;2.50;1.20;;;;;;;32.78;33.97;99923.22;4446115;32;33918;-82
2023/08/15 10:41:14;;;;;;;1.12;0.80;;;;;;;33.00;32.52;99911.91;4447156;32;33437;-82
2023/08/15 10:43:48;;;;;;;1.30;0.90;;;;;;;32.96;32.27;99907.88;4443961;32;33539;-83
2023/08/15 10:46:19;;;;;;;1.50;0.90;;;;;;;33.18;32.38;99905.66;4448089;32;33003;-82
2023/08/15 10:48:50;;;;;;;1.83;1.08;;;;;;;33.41;33.23;99908.63;4449784;32;33854;-82
2023/08/15 10:51:24;;;;;;;3.22;0.93;;;;;;;33.36;30.32;99903.72;4444431;32;35330;-82
2023/08/15 10:53:54;;;;;;;2.05;0.90;;;;;;;33.45;29.72;99902.75;4446914;32;34136;-82
2023/08/15 10:56:24;;;;;;;2.25;1.02;;;;;;;33.51;31.46;99904.78;4444851;32;33012;-83
2023/08/15 10:58:53;;;;;;;2.00;0.98;;;;;;;33.60;32.25;99904.84;4450457;32;33523;-82
2023/08/15 11:01:24;;;;;;;2.55;1.60;;;;;;;33.89;32.44;99902.53;4446482;32;33940;-82
2023/08/15 11:03:55;;;;;;;1.42;0.80;;;;;;;33.85;31.20;99903.88;4438668;32;33520;-83
2023/08/15 11:06:24;;;;;;;;;;;;;;;33.78;30.75;99900.16;4447311;32;32822;-82
2023/08/15 11:08:53;;;;;;;1.75;1.08;;;;;;;34.02;31.07;99893.13;4451460;32;33848;-83
2023/08/15 11:11:23;;;;;;;1.73;1.10;;;;;;;34.24;31.77;99894.34;4444294;32;33531;-82
2023/08/15 11:13:55;;;;;;;2.70;1.45;;;;;;;34.04;31.55;99905.41;4445574;32;33772;-82
2023/08/15 11:16:26;;;;;;;1.20;0.90;;;;;;;33.72;30.05;99898.16;4444807;32;34026;-82
2023/08/15 11:18:57;;;;;;;2.22;1.10;;;;;;;34.07;29.24;99893.47;4447528;32;34102;-82
2023/08/15 11:21:28;;;;;;;1.77;1.08;;;;;;;34.24;30.54;99891.66;4451889;32;34877;-82
2023/08/15 11:23:59;;;;;;;1.55;0.73;;;;;;;34.17;28.48;99895.03;4446404;32;34599;-82
2023/08/15 11:26:28;;;;;;;;;;;;;;;34.29;27.69;99887.47;4447387;32;33497;-82
2023/08/15 11:28:57;;;;;;;2.12;1.00;;;;;;;34.22;26.96;99880.25;4446696;32;34189;-82
2023/08/15 11:31:28;;;;;;;0.90;0.70;;;;;;;34.44;27.61;99879.53;4451618;32;33465;-82
2023/08/15 11:33:59;;;;;;;2.53;1.73;;;;;;;34.50;29.24;99878.84;4445427;32;33917;-82
2023/08/15 11:36:28;;;;;;;1.42;1.05;;;;;;;34.37;30.58;99878.53;4447219;32;32585;-82
2023/08/15 11:39:00;;;;;;;1.12;0.90;;;;;;;34.70;29.46;99878.50;4445457;32;33522;-82
2023/08/15 11:41:29;;;;;;;1.87;0.80;;;;;;;35.04;29.98;99883.66;4446170;32;34645;-82
2023/08/15 11:44:03;;;;;;;2.03;1.17;;;;;;;34.99;30.67;99886.87;4449624;32;34446;-82
2023/08/15 11:46:37;;;;;;;1.83;1.02;;;;;;;35.24;30.01;99879.53;4446470;32;33528;-82